Time;durP1;ratioP1;P1;durP2;ratioP2;P2;SDS_P1;SDS_P2;PMS_P1;PMS_P2;Temp;Humidity;BMP_temperature;BMP_pressure;BME280_temperature;BME280_humidity;BME280_pressure;Samples;Min_cycle;Max_cycle;Signal;HPM_P1;HPM_P2
2023/06/26 00:00:32;;;;;;;10.17;6.00;;;;;;;21.84;71.96;99960.45;124011;1098;104246;-81
2023/06/26 00:03:23;;;;;;;11.50;6.43;;;;;;;21.81;72.31;99964.05;123859;1099;104387;-82
2023/06/26 00:05:58;;;;;;;12.40;7.00;;;;;;;21.77;73.07;99970.37;123990;1099;104354;-82
2023/06/26 00:08:30;;;;;;;12.47;6.37;;;;;;;21.71;73.00;99970.49;124208;1099;104287;-83
2023/06/26 00:11:01;;;;;;;12.27;6.53;;;;;;;21.60;73.47;99973.36;123970;1099;104297;-78
2023/06/26 00:13:33;;;;;;;12.50;6.47;;;;;;;21.44;73.48;99962.05;123702;1100;104406;-78
2023/06/26 00:16:04;;;;;;;13.33;6.83;;;;;;;21.35;74.06;99964.88;123945;1099;104254;-78
2023/06/26 00:18:35;;;;;;;12.43;6.80;;;;;;;21.25;74.31;99957.92;123948;1099;104242;-78
2023/06/26 00:21:07;;;;;;;11.55;6.75;;;;;;;21.19;74.26;99964.22;124028;1099;104229;-79
2023/06/26 00:23:38;;;;;;;14.75;7.35;;;;;;;21.18;73.94;99957.15;124246;1099;104191;-79
2023/06/26 00:26:10;;;;;;;13.67;7.20;;;;;;;21.18;74.33;99957.15;124130;1099;104313;-81
2023/06/26 00:28:41;;;;;;;12.30;6.47;;;;;;;21.17;74.35;99947.37;124196;1099;104162;-82
2023/06/26 00:31:12;;;;;;;12.20;6.77;;;;;;;21.13;75.06;99948.31;124111;1099;104265;-82
2023/06/26 00:33:44;;;;;;;11.50;6.70;;;;;;;21.13;74.13;99945.65;124121;1099;104267;-82
2023/06/26 00:36:15;;;;;;;13.53;6.97;;;;;;;21.13;74.54;99942.98;124271;1099;104294;-79
2023/06/26 00:38:46;;;;;;;11.83;6.50;;;;;;;21.16;75.12;99942.94;124160;1099;104286;-80
2023/06/26 00:41:17;;;;;;;12.20;6.40;;;;;;;21.17;75.17;99942.91;123746;1099;104412;-79
2023/06/26 00:43:49;;;;;;;12.97;7.17;;;;;;;21.15;74.97;99942.06;123868;1102;104338;-80
2023/06/26 00:46:20;;;;;;;12.47;6.17;;;;;;;21.14;75.10;99944.75;123800;1099;104286;-79
2023/06/26 00:48:53;;;;;;;13.00;6.40;;;;;;;21.15;75.38;99935.86;124129;1099;104421;-79
2023/06/26 00:51:25;;;;;;;11.90;6.40;;;;;;;21.16;74.52;99938.50;124092;1099;104367;-79
2023/06/26 00:53:57;;;;;;;9.97;5.97;;;;;;;21.17;75.28;99934.91;124128;1099;104299;-81
2023/06/26 00:56:29;;;;;;;14.90;6.97;;;;;;;21.18;75.67;99933.14;124052;1099;104265;-81
2023/06/26 00:59:00;;;;;;;13.50;6.67;;;;;;;21.16;75.57;99938.50;124232;1099;104370;-80
2023/06/26 01:01:31;;;;;;;11.55;6.65;;;;;;;21.17;74.60;99929.56;124311;1099;104236;-80
2023/06/26 01:04:05;;;;;;;10.70;6.33;;;;;;;21.14;74.54;99936.75;124196;1099;104313;-80
2023/06/26 01:06:37;;;;;;;11.60;6.50;;;;;;;21.14;74.48;99937.63;123907;1099;104415;-80
2023/06/26 01:09:10;;;;;;;13.77;6.50;;;;;;;21.15;74.64;99919.85;124201;1099;104239;-81
2023/06/26 01:11:41;;;;;;;15.30;6.50;;;;;;;21.16;75.01;99926.92;123978;1099;104225;-81
2023/06/26 01:14:13;;;;;;;10.10;5.87;;;;;;;21.16;75.12;99930.50;123978;1099;104271;-80
2023/06/26 01:16:47;;;;;;;12.10;6.40;;;;;;;21.12;74.60;99920.77;123869;1099;104763;-82
2023/06/26 01:19:25;;;;;;;12.00;6.25;;;;;;;21.12;74.18;99915.44;123944;1099;104241;-79
2023/06/26 01:22:04;;;;;;;13.83;6.77;;;;;;;21.12;75.23;99919.91;123861;1099;104351;-81
2023/06/26 01:24:39;;;;;;;13.40;6.60;;;;;;;21.07;74.99;99911.98;124233;1099;104405;-80
2023/06/26 01:27:12;;;;;;;10.20;5.90;;;;;;;21.04;74.31;99905.82;124015;1099;104293;-80
2023/06/26 01:29:45;;;;;;;14.67;7.00;;;;;;;21.03;74.97;99910.25;124062;1099;104265;-81
2023/06/26 01:32:16;;;;;;;14.00;6.20;;;;;;;21.01;75.28;99907.61;123832;1099;104300;-81
2023/06/26 01:34:48;;;;;;;13.70;6.13;;;;;;;21.00;75.10;99905.88;123824;1099;104382;-80
2023/06/26 01:37:19;;;;;;;13.80;6.50;;;;;;;20.98;75.25;99901.46;123856;1099;104370;-80
2023/06/26 01:39:51;;;;;;;12.23;6.10;;;;;;;20.96;74.82;99903.28;124086;1099;105505;-81
2023/06/26 01:42:23;;;;;;;11.40;6.03;;;;;;;20.93;75.02;99901.53;123829;1099;104335;-80
2023/06/26 01:44:57;;;;;;;10.70;6.20;;;;;;;20.91;74.92;99905.12;123789;1099;104294;-80
2023/06/26 01:47:29;;;;;;;;;;;;;;;20.86;75.84;99905.19;124048;1098;104329;-80
2023/06/26 01:50:06;;;;;;;10.30;6.00;;;;;;;20.83;75.26;99902.58;124264;1099;104226;-81
2023/06/26 01:52:42;;;;;;;13.25;6.55;;;;;;;20.82;75.46;99906.17;124074;1099;104361;-81
2023/06/26 01:55:25;;;;;;;10.23;5.73;;;;;;;20.81;74.70;99904.39;123872;1099;104328;-80
2023/06/26 01:57:59;;;;;;;12.15;6.20;;;;;;;20.80;75.33;99903.53;124242;1099;104268;-82
2023/06/26 02:00:33;;;;;;;13.67;6.53;;;;;;;20.80;75.60;99902.63;124005;1099;104341;-80
2023/06/26 02:03:06;;;;;;;11.80;6.27;;;;;;;20.80;75.58;99900.86;123898;1099;104396;-81
2023/06/26 02:05:37;;;;;;;13.18;6.03;;;;;;;20.80;75.45;99897.30;124111;1099;104272;-82
2023/06/26 02:08:11;;;;;;;11.70;6.00;;;;;;;20.79;76.09;99903.55;124220;1099;104203;-80
2023/06/26 02:10:43;;;;;;;13.50;6.23;;;;;;;20.79;75.95;99900.88;124077;1099;104465;-80
2023/06/26 02:13:14;;;;;;;14.10;6.13;;;;;;;20.79;75.06;99904.42;124045;1099;104264;-81
2023/06/26 02:15:45;;;;;;;14.57;6.43;;;;;;;20.77;76.20;99900.91;124104;1099;104679;-81
2023/06/26 02:18:17;;;;;;;12.10;6.27;;;;;;;20.75;75.62;99900.03;124139;1099;104231;-80
2023/06/26 02:20:48;;;;;;;12.23;6.43;;;;;;;20.77;76.32;99897.34;124028;1098;104300;-80
2023/06/26 02:23:20;;;;;;;10.90;5.93;;;;;;;20.76;75.27;99900.94;124077;1098;104341;-82
2023/06/26 02:25:51;;;;;;;11.33;6.10;;;;;;;20.76;75.65;99896.47;124030;1099;104214;-81
2023/06/26 02:28:22;;;;;;;12.00;6.20;;;;;;;20.76;76.51;99899.13;124165;1098;104328;-80
2023/06/26 02:30:53;;;;;;;12.70;6.37;;;;;;;20.77;75.60;99892.01;124129;1099;104328;-82
2023/06/26 02:33:25;;;;;;;10.60;5.70;;;;;;;20.77;76.29;99892.91;124100;1099;104296;-81
2023/06/26 02:35:56;;;;;;;13.83;6.13;;;;;;;20.77;76.12;99889.34;124179;1099;104278;-80
2023/06/26 02:38:27;;;;;;;13.70;6.47;;;;;;;20.75;75.32;99888.50;124162;1099;104660;-82
2023/06/26 02:40:58;;;;;;;12.97;6.60;;;;;;;20.74;75.70;99886.72;124128;1098;104277;-80
2023/06/26 02:43:31;;;;;;;14.03;6.70;;;;;;;20.72;76.50;99900.08;124157;1098;104267;-81
2023/06/26 02:46:03;;;;;;;11.40;6.30;;;;;;;20.71;76.18;99893.00;124071;1099;104294;-80
2023/06/26 02:48:34;;;;;;;13.00;6.70;;;;;;;20.70;76.07;99896.56;124074;1099;104392;-81
2023/06/26 02:51:05;;;;;;;13.20;6.40;;;;;;;20.67;76.33;99895.74;123920;1099;104354;-81
2023/06/26 02:53:37;;;;;;;15.57;6.67;;;;;;;20.63;75.88;99895.75;124132;1099;104240;-81
2023/06/26 02:56:09;;;;;;;13.50;6.60;;;;;;;20.63;76.60;99895.75;124140;1099;104310;-81
2023/06/26 02:58:41;;;;;;;14.47;6.40;;;;;;;20.65;76.80;99901.09;123861;1099;104399;-79
2023/06/26 03:01:12;;;;;;;11.60;6.50;;;;;;;20.65;76.83;99898.43;124026;1099;104230;-78
2023/06/26 03:03:46;;;;;;;12.43;6.50;;;;;;;20.62;76.61;99901.98;124019;1099;104217;-79
2023/06/26 03:06:19;;;;;;;13.25;6.05;;;;;;;20.63;76.31;99903.75;124263;1099;104169;-81
2023/06/26 03:08:50;;;;;;;15.40;6.80;;;;;;;20.65;76.86;99901.09;123804;1099;104293;-78
2023/06/26 03:11:22;;;;;;;15.40;7.00;;;;;;;20.67;76.37;99901.95;123742;1101;104268;-80
2023/06/26 03:13:54;;;;;;;13.50;6.77;;;;;;;20.67;76.96;99911.73;124171;1099;104242;-80
2023/06/26 03:16:26;;;;;;;14.13;7.20;;;;;;;20.65;77.45;99909.09;124155;1099;104306;-79
2023/06/26 03:18:57;;;;;;;10.17;6.17;;;;;;;20.68;77.38;99911.71;124110;1099;105098;-81
2023/06/26 03:21:28;;;;;;;12.70;6.40;;;;;;;20.68;77.12;99922.38;124003;1099;104166;-81
2023/06/26 03:23:59;;;;;;;13.93;7.27;;;;;;;20.65;77.34;99917.95;123827;1099;104360;-80
2023/06/26 03:26:32;;;;;;;10.30;6.30;;;;;;;20.67;77.47;99912.60;123763;1099;104316;-80
2023/06/26 03:29:04;;;;;;;13.07;6.80;;;;;;;20.68;76.76;99921.47;123834;1099;104304;-80
2023/06/26 03:31:36;;;;;;;14.10;6.10;;;;;;;20.65;76.95;99923.29;124129;1099;104368;-80
2023/06/26 03:34:08;;;;;;;12.27;6.70;;;;;;;20.64;77.89;99912.62;123896;1099;104274;-80
2023/06/26 03:36:39;;;;;;;12.80;6.73;;;;;;;20.66;76.55;99916.16;123944;1099;104204;-79
2023/06/26 03:39:11;;;;;;;12.37;6.60;;;;;;;20.67;77.66;99917.06;123989;1099;104191;-79
2023/06/26 03:41:42;;;;;;;17.57;7.90;;;;;;;20.63;77.42;99922.41;124039;1099;104287;-81
2023/06/26 03:44:13;;;;;;;14.27;7.83;;;;;;;20.61;77.46;99917.99;123934;1099;104253;-81
2023/06/26 03:46:51;;;;;;;13.53;7.20;;;;;;;20.60;77.54;99916.22;124237;1099;104447;-83
2023/06/26 03:49:22;;;;;;;15.53;7.40;;;;;;;20.58;76.65;99907.38;124177;1098;104282;-82
2023/06/26 03:51:53;;;;;;;14.17;7.70;;;;;;;20.59;77.03;99909.15;123856;1099;104400;-83
2023/06/26 03:54:26;;;;;;;15.58;7.65;;;;;;;20.58;78.28;99912.70;124186;1099;104262;-82
2023/06/26 03:56:58;;;;;;;13.50;6.90;;;;;;;20.56;78.00;99904.73;124115;1099;104289;-83
2023/06/26 03:59:29;;;;;;;16.83;7.60;;;;;;;20.56;77.48;99910.06;124137;1099;104647;-81
2023/06/26 04:02:01;;;;;;;14.17;7.40;;;;;;;20.56;76.99;99909.19;124106;1099;104217;-82
2023/06/26 04:04:32;;;;;;;14.07;7.50;;;;;;;20.54;78.07;99913.67;123886;1099;104344;-81
2023/06/26 04:07:03;;;;;;;15.60;7.67;;;;;;;20.52;77.69;99915.46;123868;1098;104341;-82
2023/06/26 04:09:35;;;;;;;13.37;7.23;;;;;;;20.46;77.77;99911.13;123951;1099;104188;-81
2023/06/26 04:12:07;;;;;;;14.93;7.53;;;;;;;20.45;77.92;99906.68;124365;1099;104626;-84
2023/06/26 04:14:38;;;;;;;18.20;7.93;;;;;;;20.46;77.61;99913.78;124437;1098;104375;-84
2023/06/26 04:17:10;;;;;;;14.83;7.73;;;;;;;20.45;77.91;99912.02;124401;1099;104412;-81
2023/06/26 04:19:41;;;;;;;16.33;8.20;;;;;;;20.48;78.32;99904.84;124518;1099;104344;-81
2023/06/26 04:22:12;;;;;;;15.40;7.57;;;;;;;20.49;77.66;99911.08;124553;1099;104267;-81
2023/06/26 04:24:45;;;;;;;16.30;7.90;;;;;;;20.52;77.34;99912.80;124459;1099;104335;-80
2023/06/26 04:27:17;;;;;;;14.73;7.70;;;;;;;20.56;78.27;99903.86;124521;1099;104150;-80
2023/06/26 04:29:48;;;;;;;14.93;8.33;;;;;;;20.61;78.63;99912.66;124405;1099;104350;-82
2023/06/26 04:32:19;;;;;;;16.63;8.40;;;;;;;20.69;78.69;99905.45;124441;1099;104267;-81
2023/06/26 04:34:51;;;;;;;15.10;8.10;;;;;;;20.78;78.23;99905.31;124100;1100;104274;-81
2023/06/26 04:37:24;;;;;;;15.67;7.60;;;;;;;20.87;78.63;99911.43;124738;1099;104317;-84
2023/06/26 04:39:55;;;;;;;18.65;8.15;;;;;;;20.94;78.11;99913.07;124612;1099;104341;-82
2023/06/26 04:42:26;;;;;;;15.07;8.10;;;;;;;20.98;77.58;99915.66;124294;1098;104354;-79
2023/06/26 04:44:58;;;;;;;15.70;8.60;;;;;;;21.05;78.13;99913.80;124265;1099;104248;-79
2023/06/26 04:47:29;;;;;;;18.17;9.00;;;;;;;21.12;78.56;99910.10;124645;1099;104371;-80
2023/06/26 04:50:02;;;;;;;15.17;7.93;;;;;;;21.18;78.75;99904.66;124391;1098;104277;-78
2023/06/26 04:52:37;;;;;;;16.45;8.38;;;;;;;21.23;77.80;99907.25;124563;1099;104227;-81
2023/06/26 04:55:09;;;;;;;17.10;9.13;;;;;;;21.28;78.45;99916.05;123962;1099;104399;-80
2023/06/26 04:57:40;;;;;;;17.70;9.33;;;;;;;21.31;77.62;99923.13;124733;1099;104163;-82
2023/06/26 05:00:15;;;;;;;20.23;8.77;;;;;;;21.34;77.34;99915.94;124675;1099;104293;-80
2023/06/26 05:02:49;;;;;;;17.10;8.60;;;;;;;21.38;78.13;99908.78;124877;1098;104236;-79
2023/06/26 05:05:20;;;;;;;15.93;8.47;;;;;;;21.37;77.97;99918.55;124698;1098;104328;-81
2023/06/26 05:07:53;;;;;;;16.30;8.20;;;;;;;21.40;77.53;99912.29;124842;1098;104226;-79
2023/06/26 05:10:25;;;;;;;16.40;8.63;;;;;;;21.44;77.79;99910.44;125041;1099;104194;-80
2023/06/26 05:12:56;;;;;;;18.53;9.20;;;;;;;21.49;76.87;99912.16;124686;1099;104300;-81
2023/06/26 05:15:27;;;;;;;15.80;8.80;;;;;;;21.59;77.99;99917.33;125306;1099;104280;-82
2023/06/26 05:18:00;;;;;;;16.97;8.67;;;;;;;21.67;77.18;99926.92;125501;1099;104307;-80
2023/06/26 05:20:31;;;;;;;17.40;8.97;;;;;;;21.71;77.30;99919.77;124730;1100;104264;-81
2023/06/26 05:23:03;;;;;;;19.07;9.27;;;;;;;21.75;77.29;99918.77;125272;1099;104181;-78
2023/06/26 05:25:36;;;;;;;17.10;8.80;;;;;;;21.86;76.95;99919.47;126408;1098;102030;-80
2023/06/26 05:28:12;;;;;;;19.37;8.48;;;;;;;21.99;77.29;99917.42;126949;1098;102020;-79
2023/06/26 05:30:46;;;;;;;17.20;8.53;;;;;;;22.20;76.57;99913.39;125218;1098;104162;-79
2023/06/26 05:33:26;;;;;;;14.33;7.87;;;;;;;22.42;76.46;99912.96;125018;1099;102761;-80
2023/06/26 05:36:04;;;;;;;14.47;8.07;;;;;;;22.58;75.50;99909.04;125835;1099;104284;-79
2023/06/26 05:38:37;;;;;;;16.30;9.03;;;;;;;22.58;74.81;99919.73;125050;1099;104290;-80
2023/06/26 05:41:12;;;;;;;16.60;9.00;;;;;;;22.51;74.22;99906.54;124779;1099;104281;-80
2023/06/26 05:43:43;;;;;;;14.20;8.17;;;;;;;22.51;73.34;99914.56;125006;1099;104166;-81
2023/06/26 05:46:15;;;;;;;16.80;8.13;;;;;;;22.47;73.26;99923.55;125076;1099;102452;-80
2023/06/26 05:48:47;;;;;;;17.30;8.07;;;;;;;22.38;72.93;99921.98;124643;1099;104268;-80
2023/06/26 05:51:21;;;;;;;15.07;8.37;;;;;;;22.39;72.19;99921.05;124923;1099;103509;-81
2023/06/26 05:53:56;;;;;;;15.07;8.13;;;;;;;22.42;71.36;99921.88;124980;1099;104096;-75
2023/06/26 05:56:37;;;;;;;14.70;8.23;;;;;;;22.54;71.76;99923.38;124757;1099;104307;-78
2023/06/26 05:59:12;;;;;;;13.78;7.95;;;;;;;22.67;70.07;99915.95;125514;1098;102553;-80
2023/06/26 06:01:46;;;;;;;17.47;8.23;;;;;;;22.76;69.64;99922.88;125049;1099;104198;-78
2023/06/26 06:04:17;;;;;;;14.77;8.10;;;;;;;22.85;70.56;99913.77;125085;1099;104335;-81
2023/06/26 06:06:52;;;;;;;15.27;9.07;;;;;;;22.92;70.38;99918.04;125240;1099;101884;-78
2023/06/26 06:09:27;;;;;;;16.20;8.37;;;;;;;22.92;70.09;99913.59;125262;1099;104280;-81
2023/06/26 06:12:03;;;;;;;16.47;8.27;;;;;;;22.95;69.11;99916.19;124594;1099;104252;-83
2023/06/26 06:14:49;;;;;;;18.07;8.90;;;;;;;23.02;69.44;99918.72;125006;1098;104162;-82
2023/06/26 06:17:24;;;;;;;14.53;8.53;;;;;;;23.07;68.78;99919.47;126212;1099;114965;-84
2023/06/26 06:19:58;;;;;;;14.37;8.03;;;;;;;23.09;69.06;99913.20;126268;1099;102477;-83
2023/06/26 06:22:34;;;;;;;16.10;8.37;;;;;;;23.10;68.55;99914.08;126970;1098;102112;-85
2023/06/26 06:25:24;;;;;;;16.17;8.23;;;;;;;23.10;68.54;99911.40;125816;1099;104213;-83
2023/06/26 06:28:28;;;;;;;15.90;8.10;;;;;;;23.13;68.26;99920.22;124801;1099;104280;-84
2023/06/26 06:30:59;;;;;;;15.27;8.43;;;;;;;23.20;67.67;99912.91;124883;1099;104163;-79
2023/06/26 06:33:32;;;;;;;15.17;8.50;;;;;;;23.37;67.48;99920.50;125315;1099;104239;-80
2023/06/26 06:36:03;;;;;;;13.87;7.97;;;;;;;23.52;67.41;99911.19;124901;1099;104300;-80
2023/06/26 06:38:35;;;;;;;16.07;9.13;;;;;;;23.55;66.53;99915.59;125198;1098;104370;-82
2023/06/26 06:41:09;;;;;;;14.73;7.97;;;;;;;23.52;66.70;99911.19;125437;1099;104172;-83
2023/06/26 06:43:43;;;;;;;13.10;7.40;;;;;;;23.43;65.86;99924.83;125590;1099;104345;-81
2023/06/26 06:46:19;;;;;;;14.20;7.80;;;;;;;23.35;66.33;99916.13;125268;1099;104210;-81
2023/06/26 06:49:06;;;;;;;13.90;7.23;;;;;;;23.33;65.93;99917.03;125004;1099;118806;-81
2023/06/26 06:51:38;;;;;;;14.35;8.30;;;;;;;23.37;66.34;99916.95;125725;1099;103083;-78
2023/06/26 06:54:10;;;;;;;13.73;8.27;;;;;;;23.53;66.20;99918.31;124914;1099;104248;-80
2023/06/26 06:56:44;;;;;;;13.90;7.53;;;;;;;23.78;65.45;99909.58;124983;1099;103347;-83
2023/06/26 06:59:16;;;;;;;14.00;7.70;;;;;;;24.05;64.82;99899.91;125250;1099;104219;-79
2023/06/26 07:01:59;;;;;;;14.43;7.43;;;;;;;24.22;64.93;99905.64;125186;1099;104644;-81
2023/06/26 07:04:32;;;;;;;18.30;8.33;;;;;;;24.27;64.64;99912.68;124723;1099;104160;-79
2023/06/26 07:07:09;;;;;;;13.13;7.73;;;;;;;24.29;64.57;99906.33;124935;1099;104182;-84
2023/06/26 07:09:41;;;;;;;14.53;8.13;;;;;;;24.31;64.20;99899.14;124508;1099;104258;-79
2023/06/26 07:12:13;;;;;;;14.80;8.10;;;;;;;24.33;64.36;99910.69;124848;1099;105177;-80
2023/06/26 07:14:47;;;;;;;17.33;7.80;;;;;;;24.40;63.54;99900.64;124907;1099;104239;-80
2023/06/26 07:17:19;;;;;;;14.27;7.90;;;;;;;24.53;63.46;99899.34;124983;1099;104155;-81
2023/06/26 07:19:50;;;;;;;12.73;7.33;;;;;;;24.82;63.43;99908.28;124701;1099;104268;-79
2023/06/26 07:22:21;;;;;;;14.17;7.57;;;;;;;25.09;60.97;99919.92;124945;1099;104165;-82
2023/06/26 07:24:56;;;;;;;15.77;7.40;;;;;;;25.21;61.98;99907.91;124475;1099;104291;-84
2023/06/26 07:27:31;;;;;;;14.47;8.00;;;;;;;25.34;60.88;99903.02;124702;1099;104248;-82
2023/06/26 07:30:03;;;;;;;14.07;7.70;;;;;;;25.52;59.79;99904.16;124927;1099;104245;-83
2023/06/26 07:32:36;;;;;;;14.07;7.33;;;;;;;25.56;59.70;99913.01;125058;1098;104153;-78
2023/06/26 07:35:17;;;;;;;13.43;7.40;;;;;;;25.60;58.39;99912.84;124917;1099;105191;-83
2023/06/26 07:37:51;;;;;;;13.53;6.97;;;;;;;25.46;56.70;99928.55;125735;1099;104178;-78
2023/06/26 07:40:22;;;;;;;14.10;7.00;;;;;;;25.38;57.44;99925.26;124915;1099;104296;-76
2023/06/26 07:42:54;;;;;;;11.00;6.80;;;;;;;25.25;55.19;99924.78;125015;1099;104140;-78
2023/06/26 07:45:28;;;;;;;13.50;6.80;;;;;;;25.29;55.29;99915.70;125356;1099;104233;-84
2023/06/26 07:47:59;;;;;;;11.07;6.07;;;;;;;25.59;54.63;99923.64;124925;1099;104219;-83
2023/06/26 07:50:31;;;;;;;11.30;6.30;;;;;;;25.71;54.15;99925.89;125230;1098;104201;-82
2023/06/26 07:53:05;;;;;;;12.67;6.27;;;;;;;25.96;51.83;99924.97;125538;1099;104252;-81
2023/06/26 07:55:41;;;;;;;;;;;;;;;26.23;49.30;99924.92;125091;1099;104354;-79
2023/06/26 07:58:29;;;;;;;10.67;6.20;;;;;;;26.39;52.89;99920.69;124920;1099;104274;-80
2023/06/26 08:01:03;;;;;;;11.93;6.67;;;;;;;26.47;53.72;99913.19;125067;1099;104162;-85
2023/06/26 08:03:36;;;;;;;13.07;7.10;;;;;;;26.47;53.52;99923.08;126099;1099;104169;-82
2023/06/26 08:06:24;;;;;;;;;;;;;;;;;;;;;
2023/06/26 08:08:56;;;;;;;12.47;6.63;;;;;;;26.28;53.20;99922.92;125087;1099;104201;-83
2023/06/26 08:11:28;;;;;;;11.63;6.73;;;;;;;26.18;53.46;99917.90;125219;1099;104249;-84
2023/06/26 08:14:01;;;;;;;12.90;7.33;;;;;;;26.12;53.19;99923.50;125072;1099;104168;-84
2023/06/26 08:16:33;;;;;;;11.67;6.37;;;;;;;26.06;53.36;99915.67;124990;1099;104245;-82
2023/06/26 08:19:11;;;;;;;11.13;6.40;;;;;;;25.92;52.21;99926.91;124941;1099;104165;-80
2023/06/26 08:21:45;;;;;;;10.50;6.30;;;;;;;25.79;51.75;99926.48;124373;1097;103865;-79
2023/06/26 08:24:20;;;;;;;11.20;6.20;;;;;;;25.73;51.83;99929.39;124801;1099;101949;-79
2023/06/26 08:27:00;;;;;;;11.22;6.10;;;;;;;25.73;51.98;99931.21;124334;1099;104185;-78
2023/06/26 08:29:35;;;;;;;10.43;6.40;;;;;;;25.71;51.72;99928.58;124799;1099;105617;-79
2023/06/26 08:32:07;;;;;;;12.17;6.60;;;;;;;25.61;51.43;99925.33;124631;1099;104281;-78
2023/06/26 08:34:44;;;;;;;12.47;6.57;;;;;;;25.60;51.28;99926.27;124917;1099;104374;-80
2023/06/26 08:37:40;;;;;;;10.70;6.20;;;;;;;25.63;51.36;99919.89;125099;1099;104316;-82
2023/06/26 08:40:34;;;;;;;10.77;6.10;;;;;;;25.75;51.02;99922.14;124544;1099;104213;-79
2023/06/26 08:43:10;;;;;;;11.03;6.17;;;;;;;26.06;51.35;99915.67;124453;1099;104210;-80
2023/06/26 08:45:41;;;;;;;11.97;5.57;;;;;;;26.45;51.05;99907.00;124815;1099;104357;-76
2023/06/26 08:48:14;;;;;;;8.73;5.70;;;;;;;26.87;50.00;99914.31;124659;1099;104400;-76
2023/06/26 08:50:58;;;;;;;9.90;5.35;;;;;;;27.04;47.66;99924.38;124918;1099;104322;-78
2023/06/26 08:53:38;;;;;;;9.20;5.43;;;;;;;27.09;48.73;99916.98;124851;1099;102677;-82
2023/06/26 08:56:11;;;;;;;7.83;5.43;;;;;;;27.20;47.72;99912.97;124948;1099;102206;-78
2023/06/26 08:58:48;;;;;;;7.53;5.20;;;;;;;27.32;46.59;99923.25;124978;1098;104198;-82
2023/06/26 09:01:24;;;;;;;10.47;5.90;;;;;;;27.32;46.09;99922.39;125747;1099;107108;-77
2023/06/26 09:03:59;;;;;;;11.20;5.43;;;;;;;27.48;45.89;99915.38;124406;1103;102508;-81
2023/06/26 09:06:30;;;;;;;8.97;4.93;;;;;;;27.56;44.98;99907.82;124828;1099;104268;-75
2023/06/26 09:09:05;;;;;;;8.60;5.13;;;;;;;27.59;45.35;99910.38;124896;1099;104192;-78
2023/06/26 09:11:38;;;;;;;6.80;4.80;;;;;;;27.55;43.97;99919.56;124906;1098;119498;-78
2023/06/26 09:14:10;;;;;;;8.90;4.53;;;;;;;27.52;43.86;99908.92;124814;1099;104172;-77
2023/06/26 09:16:47;;;;;;;8.83;4.87;;;;;;;27.58;44.56;99914.05;124990;1099;104245;-83
2023/06/26 09:19:21;;;;;;;8.73;5.20;;;;;;;27.60;44.56;99906.75;125733;1100;104297;-76
2023/06/26 09:21:55;;;;;;;8.57;5.00;;;;;;;27.62;43.96;99909.38;124974;1099;102677;-78
2023/06/26 09:24:28;;;;;;;6.93;4.70;;;;;;;27.75;44.15;99907.91;125183;1099;103843;-80
2023/06/26 09:27:03;;;;;;;7.50;4.80;;;;;;;27.75;43.46;99904.31;125173;1099;102494;-81
2023/06/26 09:29:35;;;;;;;6.93;4.40;;;;;;;27.89;42.84;99901.89;125096;1099;102706;-83
2023/06/26 09:32:10;;;;;;;9.07;4.50;;;;;;;27.83;41.68;99907.56;124922;1099;111607;-81
2023/06/26 09:34:47;;;;;;;9.90;4.40;;;;;;;27.89;40.65;99893.80;124665;1099;104296;-81
2023/06/26 09:37:26;;;;;;;7.43;4.30;;;;;;;28.14;40.46;99912.45;125961;1098;104238;-83
2023/06/26 09:40:01;;;;;;;7.37;4.30;;;;;;;28.38;39.64;99897.88;125954;1099;104271;-79
2023/06/26 09:42:45;;;;;;;7.63;4.00;;;;;;;28.45;39.95;99885.82;124970;1099;104160;-79
2023/06/26 09:45:22;;;;;;;;;;;;;;;28.67;38.00;99891.08;124484;1099;104319;-80
2023/06/26 09:48:00;;;;;;;10.47;4.80;;;;;;;28.88;39.19;99890.98;124543;1099;104697;-80
2023/06/26 09:50:33;;;;;;;6.43;4.30;;;;;;;28.94;39.84;99874.48;124507;1099;105356;-82
2023/06/26 09:53:13;;;;;;;7.13;4.40;;;;;;;28.82;39.00;99886.76;124836;1099;104319;-81
2023/06/26 09:56:07;;;;;;;8.10;4.43;;;;;;;28.73;39.10;99871.02;126027;1099;104166;-83
2023/06/26 09:58:43;;;;;;;5.83;4.20;;;;;;;28.73;38.95;99871.87;125635;1099;104371;-79
2023/06/26 10:01:18;;;;;;;7.47;4.00;;;;;;;28.74;38.49;99868.23;124730;1099;104166;-76
2023/06/26 10:03:56;;;;;;;7.78;4.30;;;;;;;28.72;37.24;99869.25;124413;1102;104360;-81
2023/06/26 10:06:34;;;;;;;6.43;4.27;;;;;;;28.65;36.65;99869.56;124580;1099;104156;-81
2023/06/26 10:09:07;;;;;;;6.90;4.40;;;;;;;28.69;37.14;99873.86;125248;1099;104236;-79
2023/06/26 10:11:43;;;;;;;9.10;4.60;;;;;;;28.77;36.92;99861.83;125250;1099;104211;-77
2023/06/26 10:14:15;;;;;;;8.07;4.77;;;;;;;28.88;36.96;99869.39;125163;1099;103370;-79
2023/06/26 10:16:49;;;;;;;10.35;4.70;;;;;;;28.97;36.55;99863.52;125095;1099;103171;-80
2023/06/26 10:19:25;;;;;;;5.30;3.90;;;;;;;28.86;36.87;99855.97;125232;1098;104515;-79
2023/06/26 10:21:59;;;;;;;9.17;4.70;;;;;;;28.81;37.01;99868.80;124913;1099;104143;-76
2023/06/26 10:24:37;;;;;;;7.80;4.53;;;;;;;28.69;37.01;99871.17;126108;1099;101822;-79
2023/06/26 10:27:16;;;;;;;6.20;4.37;;;;;;;28.55;36.81;99872.75;125157;1099;104217;-78
2023/06/26 10:29:52;;;;;;;8.07;4.47;;;;;;;28.56;36.44;99875.38;125040;1099;104185;-80
2023/06/26 10:32:25;;;;;;;11.50;5.03;;;;;;;28.74;36.87;99864.67;124741;1099;101936;-76
2023/06/26 10:34:58;;;;;;;9.97;4.33;;;;;;;28.96;36.88;99868.03;124717;1099;104204;-80
2023/06/26 10:40:42;;;;;;;14.17;4.67;;;;;;;29.16;36.79;99849.94;124476;1102;104220;-80
2023/06/26 10:43:19;;;;;;;8.23;4.30;;;;;;;29.38;36.87;99861.39;125157;1102;104223;-79
2023/06/26 10:45:57;;;;;;;9.10;4.50;;;;;;;29.55;35.24;99865.91;124312;1105;102128;-82
2023/06/26 10:48:32;;;;;;;7.87;4.60;;;;;;;29.37;34.67;99856.96;124515;1105;104242;-82
2023/06/26 10:51:17;;;;;;;6.80;4.07;;;;;;;29.16;34.54;99860.75;125673;1102;102122;-81
2023/06/26 10:53:54;;;;;;;6.67;4.23;;;;;;;29.09;34.35;99856.60;124426;1102;104178;-83
2023/06/26 10:56:58;;;;;;;8.13;4.50;;;;;;;29.10;34.84;99850.25;125156;1102;104175;-82
2023/06/26 10:59:32;;;;;;;7.87;4.17;;;;;;;29.21;34.46;99846.06;124260;1105;104284;-77
2023/06/26 11:02:06;;;;;;;7.13;4.07;;;;;;;29.07;34.04;99856.67;124019;1102;120146;-78
2023/06/26 11:04:54;;;;;;;6.83;4.37;;;;;;;29.13;34.81;99842.00;125165;1102;103935;-79
2023/06/26 11:07:32;;;;;;;8.33;4.70;;;;;;;29.28;34.19;99833.13;125334;1102;103310;-81
2023/06/26 11:10:12;;;;;;;6.00;4.10;;;;;;;29.33;34.13;99844.55;124184;1105;104204;-81
2023/06/26 11:12:47;;;;;;;7.63;4.20;;;;;;;29.19;34.24;99829.06;124133;1102;104223;-76
2023/06/26 11:15:20;;;;;;;6.70;4.40;;;;;;;29.07;33.99;99835.07;123980;1102;104233;-80
2023/06/26 11:18:00;;;;;;;8.60;4.20;;;;;;;29.05;33.87;99827.05;124146;1102;104204;-79
2023/06/26 11:20:35;;;;;;;8.57;4.20;;;;;;;28.91;33.49;99821.49;124185;1106;104242;-78
2023/06/26 11:23:11;;;;;;;8.00;4.43;;;;;;;28.75;32.76;99823.21;124140;1102;104208;-84
2023/06/26 11:25:44;;;;;;;9.90;4.17;;;;;;;28.82;32.65;99824.66;123978;1105;104227;-77
2023/06/26 11:28:15;;;;;;;6.33;3.80;;;;;;;28.95;32.60;99820.39;124003;1102;104176;-84
2023/06/26 11:30:52;;;;;;;6.77;3.93;;;;;;;28.92;32.96;99823.25;124324;1102;104111;-82
2023/06/26 11:33:32;;;;;;;9.90;4.30;;;;;;;28.89;33.18;99820.70;124476;1105;104313;-79
2023/06/26 11:36:20;;;;;;;7.90;4.03;;;;;;;28.77;33.13;99824.89;124275;1102;104297;-77
2023/06/26 11:39:10;;;;;;;6.77;3.80;;;;;;;28.69;33.30;99825.28;123967;1102;104220;-76
2023/06/26 11:41:47;;;;;;;5.73;4.00;;;;;;;28.92;33.38;99815.16;124221;1102;104245;-81
2023/06/26 11:44:30;;;;;;;5.63;4.03;;;;;;;29.08;33.58;99812.52;125102;1102;102263;-80
2023/06/26 11:47:02;;;;;;;7.40;3.93;;;;;;;29.17;33.11;99816.55;124128;1102;104297;-78
2023/06/26 11:49:34;;;;;;;6.47;3.97;;;;;;;29.13;32.59;99815.84;124181;1102;104715;-79